Time,TemperatureF,DewpointF,PressureIn,WindDirection,WindDirectionDegrees,WindSpeedMPH,WindSpeedGustMPH,Humidity,HourlyPrecipIn,Conditions,Clouds,dailyrainin,SoftwareType,DateUTC
2013-02-04 20:58:00,46.0,44.4,29.94,West,272,0.0,0.0,94,0.00,,,0.09,Wunderground v.1.15,2013-02-05 02:58:00,
2013-02-04 21:03:00,45.9,44.3,29.94,West,272,0.0,0.0,94,0.00,,,0.09,Wunderground v.1.15,2013-02-05 03:03:00,
2013-02-04 21:08:00,45.9,44.3,29.94,West,272,0.0,0.0,94,0.00,,,0.09,Wunderground v.1.15,2013-02-05 03:08:00,
2013-02-04 21:13:00,45.9,44.3,29.94,West,272,0.0,0.0,94,0.00,,,0.09,Wunderground v.1.15,2013-02-05 03:13:00,
2013-02-04 21:18:00,45.8,44.2,29.94,WSW,249,0.0,2.0,94,0.00,,,0.09,Wunderground v.1.15,2013-02-05 03:18:00,
2013-02-04 21:24:00,45.9,44.3,29.94,South,190,3.0,3.0,94,0.00,,,0.09,Wunderground v.1.15,2013-02-05 03:24:00,
2013-02-04 21:29:00,46.1,44.2,29.94,West,269,0.0,4.0,93,0.00,,,0.09,Wunderground v.1.15,2013-02-05 03:29:00,
2013-02-04 21:34:00,46.3,44.1,29.94,SW,225,0.0,2.0,92,0.00,,,0.09,Wunderground v.1.15,2013-02-05 03:34:00,
2013-02-04 21:39:00,46.5,44.3,29.94,WSW,246,0.0,4.0,92,0.00,,,0.09,Wunderground v.1.15,2013-02-05 03:39:00,
2013-02-04 21:44:00,46.6,44.1,29.94,SW,228,0.0,2.0,91,0.00,,,0.09,Wunderground v.1.15,2013-02-05 03:44:00,
2013-02-04 21:49:00,46.7,44.2,29.94,SW,229,2.0,3.0,91,0.00,,,0.09,Wunderground v.1.15,2013-02-05 03:49:00,
2013-02-04 21:54:00,46.7,44.2,29.94,WSW,240,1.0,1.0,91,0.00,,,0.09,Wunderground v.1.15,2013-02-05 03:54:00,
2013-02-04 21:59:00,46.8,44.3,29.94,SW,224,3.0,5.0,91,0.00,,,0.09,Wunderground v.1.15,2013-02-05 03:59:00,
2013-02-04 22:04:00,47.0,44.2,29.94,WSW,253,0.0,4.0,90,0.00,,,0.09,Wunderground v.1.15,2013-02-05 04:04:00,
2013-02-04 22:09:00,47.2,44.4,29.94,SW,235,1.0,4.0,90,0.00,,,0.09,Wunderground v.1.15,2013-02-05 04:09:00,
2013-02-04 22:14:00,47.2,44.4,29.94,WSW,238,1.0,4.0,90,0.00,,,0.09,Wunderground v.1.15,2013-02-05 04:14:00,
2013-02-04 22:19:00,47.3,44.2,29.94,WSW,238,1.0,4.0,89,0.00,,,0.09,Wunderground v.1.15,2013-02-05 04:19:00,
2013-02-04 22:24:00,47.3,44.2,29.94,SW,224,0.0,2.0,89,0.00,,,0.09,Wunderground v.1.15,2013-02-05 04:24:00,
2013-02-04 22:29:00,47.3,44.5,29.94,SW,224,0.0,2.0,90,0.00,,,0.09,Wunderground v.1.15,2013-02-05 04:29:00,
2013-02-04 22:34:00,47.3,44.5,29.93,West,269,0.0,3.0,90,0.00,,,0.09,Wunderground v.1.15,2013-02-05 04:34:00,
2013-02-04 22:39:00,47.3,44.5,29.93,WSW,250,0.0,3.0,90,0.00,,,0.09,Wunderground v.1.15,2013-02-05 04:39:00,
2013-02-04 22:44:00,47.2,44.7,29.93,WSW,250,0.0,1.0,91,0.00,,,0.09,Wunderground v.1.15,2013-02-05 04:44:00,
2013-02-04 22:50:00,47.1,44.6,29.93,WSW,250,0.0,1.0,91,0.00,,,0.09,Wunderground v.1.15,2013-02-05 04:50:00,
2013-02-04 22:55:00,46.9,44.7,29.93,WSW,246,0.0,3.0,92,0.00,,,0.09,Wunderground v.1.15,2013-02-05 04:55:00,
2013-02-04 23:00:00,46.7,44.5,29.93,WSW,242,1.0,3.0,92,0.00,,,0.09,Wunderground v.1.15,2013-02-05 05:00:00,
2013-02-04 23:05:00,46.7,44.5,29.93,WSW,242,0.0,1.0,92,0.00,,,0.09,Wunderground v.1.15,2013-02-05 05:05:00,
2013-02-04 23:11:00,46.8,44.3,29.93,WSW,244,1.0,1.0,91,0.00,,,0.09,Wunderground v.1.15,2013-02-05 05:11:00,
2013-02-04 23:16:00,47.0,44.2,29.93,WSW,242,0.0,3.0,90,0.00,,,0.09,Wunderground v.1.15,2013-02-05 05:16:00,
2013-02-04 23:21:00,47.1,44.3,29.93,WSW,242,0.0,0.0,90,0.00,,,0.09,Wunderground v.1.15,2013-02-05 05:21:00,
2013-02-04 23:26:00,47.3,44.2,29.93,WSW,242,1.0,2.0,89,0.00,,,0.09,Wunderground v.1.15,2013-02-05 05:26:00,
2013-02-04 23:31:00,47.3,44.2,29.94,WSW,242,1.0,2.0,89,0.00,,,0.09,Wunderground v.1.15,2013-02-05 05:31:00,
2013-02-04 23:37:00,47.4,44.6,29.94,SW,231,0.0,4.0,90,0.00,,,0.09,Wunderground v.1.15,2013-02-05 05:37:00,
2013-02-04 23:42:00,47.4,44.3,29.94,SW,236,0.0,2.0,89,0.00,,,0.09,Wunderground v.1.15,2013-02-05 05:42:00,
2013-02-04 23:47:00,47.5,44.4,29.93,SW,236,0.0,2.0,89,0.00,,,0.09,Wunderground v.1.15,2013-02-05 05:47:00,
2013-02-04 23:52:00,47.5,44.4,29.93,SW,236,0.0,1.0,89,0.00,,,0.09,Wunderground v.1.15,2013-02-05 05:52:00,
2013-02-04 23:57:00,47.5,44.4,29.93,SW,231,1.0,2.0,89,0.00,,,0.09,Wunderground v.1.15,2013-02-05 05:57:00,